sensor_id;sensor_type;location;lat;lon;timestamp;P1;durP1;ratioP1;P2;durP2;ratioP2
75535;SDS011;64119;52.070;20.804;2023-09-30T00:00:07;11.00;;;7.30;;
75535;SDS011;64119;52.070;20.804;2023-09-30T00:03:00;9.50;;;5.80;;
75535;SDS011;64119;52.070;20.804;2023-09-30T00:09:11;9.00;;;5.80;;
75535;SDS011;64119;52.070;20.804;2023-09-30T00:11:40;10.30;;;6.00;;
75535;SDS011;64119;52.070;20.804;2023-09-30T00:14:08;12.70;;;6.10;;
75535;SDS011;64119;52.070;20.804;2023-09-30T00:16:36;8.60;;;5.80;;
75535;SDS011;64119;52.070;20.804;2023-09-30T00:19:04;9.70;;;6.50;;
75535;SDS011;64119;52.070;20.804;2023-09-30T00:21:31;10.20;;;6.10;;
75535;SDS011;64119;52.070;20.804;2023-09-30T00:23:59;11.20;;;7.20;;
75535;SDS011;64119;52.070;20.804;2023-09-30T00:26:27;9.90;;;6.30;;
75535;SDS011;64119;52.070;20.804;2023-09-30T00:28:55;8.80;;;6.40;;
75535;SDS011;64119;52.070;20.804;2023-09-30T00:31:23;12.00;;;6.30;;
75535;SDS011;64119;52.070;20.804;2023-09-30T00:33:51;11.70;;;6.60;;
75535;SDS011;64119;52.070;20.804;2023-09-30T00:36:20;8.30;;;6.00;;
75535;SDS011;64119;52.070;20.804;2023-09-30T00:38:48;12.60;;;6.40;;
75535;SDS011;64119;52.070;20.804;2023-09-30T00:41:16;9.40;;;6.20;;
75535;SDS011;64119;52.070;20.804;2023-09-30T00:43:47;9.90;;;5.50;;
75535;SDS011;64119;52.070;20.804;2023-09-30T00:48:46;11.00;;;6.80;;
75535;SDS011;64119;52.070;20.804;2023-09-30T00:51:14;9.40;;;5.50;;
75535;SDS011;64119;52.070;20.804;2023-09-30T00:53:43;9.80;;;6.00;;
75535;SDS011;64119;52.070;20.804;2023-09-30T00:56:11;11.00;;;6.40;;
75535;SDS011;64119;52.070;20.804;2023-09-30T00:58:40;13.60;;;6.20;;
75535;SDS011;64119;52.070;20.804;2023-09-30T01:01:09;11.70;;;6.20;;
75535;SDS011;64119;52.070;20.804;2023-09-30T01:03:37;8.70;;;6.00;;
75535;SDS011;64119;52.070;20.804;2023-09-30T01:06:05;12.40;;;6.20;;
75535;SDS011;64119;52.070;20.804;2023-09-30T01:08:33;9.50;;;6.30;;
75535;SDS011;64119;52.070;20.804;2023-09-30T01:15:20;9.30;;;6.10;;
75535;SDS011;64119;52.070;20.804;2023-09-30T01:17:48;9.50;;;6.10;;
75535;SDS011;64119;52.070;20.804;2023-09-30T01:20:17;10.50;;;6.00;;
75535;SDS011;64119;52.070;20.804;2023-09-30T01:22:47;7.60;;;6.30;;
75535;SDS011;64119;52.070;20.804;2023-09-30T01:25:15;9.50;;;6.20;;
75535;SDS011;64119;52.070;20.804;2023-09-30T01:27:43;9.50;;;6.70;;
75535;SDS011;64119;52.070;20.804;2023-09-30T01:30:11;9.50;;;7.10;;
75535;SDS011;64119;52.070;20.804;2023-09-30T01:32:41;8.80;;;6.50;;
75535;SDS011;64119;52.070;20.804;2023-09-30T01:35:09;7.70;;;6.60;;
75535;SDS011;64119;52.070;20.804;2023-09-30T01:37:39;12.80;;;7.50;;
75535;SDS011;64119;52.070;20.804;2023-09-30T01:40:09;9.60;;;6.90;;
75535;SDS011;64119;52.070;20.804;2023-09-30T01:42:39;10.40;;;7.50;;
75535;SDS011;64119;52.070;20.804;2023-09-30T01:45:07;10.00;;;6.90;;
75535;SDS011;64119;52.070;20.804;2023-09-30T01:47:36;9.10;;;6.60;;
75535;SDS011;64119;52.070;20.804;2023-09-30T01:50:04;9.20;;;6.90;;
75535;SDS011;64119;52.070;20.804;2023-09-30T01:52:33;8.40;;;6.30;;
75535;SDS011;64119;52.070;20.804;2023-09-30T01:55:01;8.90;;;6.30;;
75535;SDS011;64119;52.070;20.804;2023-09-30T01:57:29;8.30;;;6.00;;
75535;SDS011;64119;52.070;20.804;2023-09-30T01:59:57;9.00;;;6.40;;
75535;SDS011;64119;52.070;20.804;2023-09-30T02:02:25;10.10;;;6.90;;
75535;SDS011;64119;52.070;20.804;2023-09-30T02:04:54;11.60;;;5.90;;
75535;SDS011;64119;52.070;20.804;2023-09-30T02:07:22;10.30;;;6.10;;
75535;SDS011;64119;52.070;20.804;2023-09-30T02:09:49;7.60;;;5.90;;
75535;SDS011;64119;52.070;20.804;2023-09-30T02:12:17;9.40;;;6.20;;
75535;SDS011;64119;52.070;20.804;2023-09-30T02:14:45;10.50;;;6.30;;
75535;SDS011;64119;52.070;20.804;2023-09-30T02:17:14;9.80;;;6.20;;
75535;SDS011;64119;52.070;20.804;2023-09-30T02:19:42;11.30;;;6.50;;
75535;SDS011;64119;52.070;20.804;2023-09-30T02:22:11;11.20;;;6.80;;
75535;SDS011;64119;52.070;20.804;2023-09-30T02:24:40;7.90;;;5.70;;
75535;SDS011;64119;52.070;20.804;2023-09-30T02:27:08;10.70;;;5.90;;
75535;SDS011;64119;52.070;20.804;2023-09-30T02:29:35;11.50;;;7.60;;
75535;SDS011;64119;52.070;20.804;2023-09-30T02:32:03;9.80;;;5.80;;
75535;SDS011;64119;52.070;20.804;2023-09-30T02:34:31;9.70;;;7.20;;
75535;SDS011;64119;52.070;20.804;2023-09-30T02:36:59;12.90;;;7.90;;
75535;SDS011;64119;52.070;20.804;2023-09-30T02:39:29;10.50;;;7.50;;
75535;SDS011;64119;52.070;20.804;2023-09-30T02:41:57;9.50;;;7.40;;
75535;SDS011;64119;52.070;20.804;2023-09-30T02:44:24;11.60;;;9.10;;
75535;SDS011;64119;52.070;20.804;2023-09-30T02:46:52;12.90;;;8.40;;
75535;SDS011;64119;52.070;20.804;2023-09-30T02:49:21;11.70;;;8.50;;
75535;SDS011;64119;52.070;20.804;2023-09-30T02:51:49;11.40;;;8.40;;
75535;SDS011;64119;52.070;20.804;2023-09-30T02:54:16;10.70;;;7.70;;
75535;SDS011;64119;52.070;20.804;2023-09-30T02:56:44;9.40;;;7.80;;
75535;SDS011;64119;52.070;20.804;2023-09-30T02:59:14;11.00;;;7.70;;
75535;SDS011;64119;52.070;20.804;2023-09-30T03:01:44;10.30;;;5.80;;
75535;SDS011;64119;52.070;20.804;2023-09-30T03:04:12;9.90;;;7.30;;
75535;SDS011;64119;52.070;20.804;2023-09-30T03:06:40;12.30;;;6.10;;
75535;SDS011;64119;52.070;20.804;2023-09-30T03:09:10;9.60;;;5.90;;
75535;SDS011;64119;52.070;20.804;2023-09-30T03:11:41;8.60;;;5.80;;
75535;SDS011;64119;52.070;20.804;2023-09-30T03:14:10;11.90;;;7.20;;
75535;SDS011;64119;52.070;20.804;2023-09-30T03:16:39;9.30;;;7.10;;
75535;SDS011;64119;52.070;20.804;2023-09-30T03:19:09;12.50;;;6.70;;
75535;SDS011;64119;52.070;20.804;2023-09-30T03:21:39;10.10;;;6.10;;
75535;SDS011;64119;52.070;20.804;2023-09-30T03:24:07;12.70;;;7.40;;
75535;SDS011;64119;52.070;20.804;2023-09-30T03:26:35;12.20;;;6.80;;
75535;SDS011;64119;52.070;20.804;2023-09-30T03:29:03;10.80;;;6.80;;
75535;SDS011;64119;52.070;20.804;2023-09-30T03:31:33;11.40;;;7.00;;
75535;SDS011;64119;52.070;20.804;2023-09-30T03:34:02;10.20;;;6.70;;
75535;SDS011;64119;52.070;20.804;2023-09-30T03:36:31;10.80;;;5.90;;
75535;SDS011;64119;52.070;20.804;2023-09-30T03:38:59;9.40;;;6.70;;
75535;SDS011;64119;52.070;20.804;2023-09-30T03:41:33;10.10;;;6.50;;
75535;SDS011;64119;52.070;20.804;2023-09-30T03:44:04;11.20;;;7.20;;
75535;SDS011;64119;52.070;20.804;2023-09-30T03:46:32;10.00;;;7.20;;
75535;SDS011;64119;52.070;20.804;2023-09-30T03:49:00;10.60;;;6.90;;
75535;SDS011;64119;52.070;20.804;2023-09-30T03:51:28;9.30;;;6.90;;
75535;SDS011;64119;52.070;20.804;2023-09-30T03:53:56;9.40;;;6.30;;
75535;SDS011;64119;52.070;20.804;2023-09-30T03:56:24;10.40;;;7.10;;
75535;SDS011;64119;52.070;20.804;2023-09-30T03:58:53;9.70;;;6.10;;
75535;SDS011;64119;52.070;20.804;2023-09-30T04:01:20;8.40;;;6.10;;
75535;SDS011;64119;52.070;20.804;2023-09-30T04:03:49;8.50;;;6.40;;
75535;SDS011;64119;52.070;20.804;2023-09-30T04:06:17;9.50;;;6.50;;
75535;SDS011;64119;52.070;20.804;2023-09-30T04:08:45;9.80;;;6.20;;
75535;SDS011;64119;52.070;20.804;2023-09-30T04:11:12;10.90;;;7.00;;
75535;SDS011;64119;52.070;20.804;2023-09-30T04:13:45;9.50;;;5.90;;
75535;SDS011;64119;52.070;20.804;2023-09-30T04:16:13;9.40;;;6.40;;
75535;SDS011;64119;52.070;20.804;2023-09-30T04:18:41;8.30;;;6.20;;
75535;SDS011;64119;52.070;20.804;2023-09-30T04:21:09;10.70;;;6.00;;
75535;SDS011;64119;52.070;20.804;2023-09-30T04:23:37;10.60;;;7.20;;
75535;SDS011;64119;52.070;20.804;2023-09-30T04:26:04;9.10;;;6.40;;
75535;SDS011;64119;52.070;20.804;2023-09-30T04:28:32;12.90;;;6.20;;
75535;SDS011;64119;52.070;20.804;2023-09-30T04:31:01;10.00;;;6.00;;
75535;SDS011;64119;52.070;20.804;2023-09-30T04:33:30;7.70;;;5.90;;
75535;SDS011;64119;52.070;20.804;2023-09-30T04:35:59;11.10;;;6.50;;
75535;SDS011;64119;52.070;20.804;2023-09-30T04:38:27;8.50;;;6.40;;
75535;SDS011;64119;52.070;20.804;2023-09-30T04:40:55;10.10;;;6.20;;
75535;SDS011;64119;52.070;20.804;2023-09-30T04:43:23;9.70;;;5.90;;
75535;SDS011;64119;52.070;20.804;2023-09-30T04:45:51;10.10;;;5.80;;
75535;SDS011;64119;52.070;20.804;2023-09-30T04:48:20;9.20;;;5.90;;
75535;SDS011;64119;52.070;20.804;2023-09-30T04:50:48;8.80;;;5.70;;
75535;SDS011;64119;52.070;20.804;2023-09-30T04:53:18;7.90;;;5.80;;
75535;SDS011;64119;52.070;20.804;2023-09-30T04:55:45;8.40;;;5.80;;
75535;SDS011;64119;52.070;20.804;2023-09-30T04:58:15;7.70;;;5.40;;
75535;SDS011;64119;52.070;20.804;2023-09-30T05:00:44;6.60;;;5.50;;
75535;SDS011;64119;52.070;20.804;2023-09-30T05:03:12;9.70;;;5.90;;
75535;SDS011;64119;52.070;20.804;2023-09-30T05:05:40;7.80;;;5.60;;
75535;SDS011;64119;52.070;20.804;2023-09-30T05:08:09;6.50;;;4.90;;
75535;SDS011;64119;52.070;20.804;2023-09-30T05:10:38;9.50;;;5.50;;
75535;SDS011;64119;52.070;20.804;2023-09-30T05:13:06;9.70;;;5.30;;
75535;SDS011;64119;52.070;20.804;2023-09-30T05:15:34;8.80;;;5.40;;
75535;SDS011;64119;52.070;20.804;2023-09-30T05:18:03;9.10;;;5.40;;
75535;SDS011;64119;52.070;20.804;2023-09-30T05:20:32;9.90;;;5.70;;
75535;SDS011;64119;52.070;20.804;2023-09-30T05:23:00;7.90;;;5.50;;
75535;SDS011;64119;52.070;20.804;2023-09-30T05:25:28;6.90;;;5.10;;
75535;SDS011;64119;52.070;20.804;2023-09-30T05:27:56;8.10;;;5.40;;
75535;SDS011;64119;52.070;20.804;2023-09-30T05:30:24;9.10;;;5.20;;
75535;SDS011;64119;52.070;20.804;2023-09-30T05:32:53;9.90;;;4.80;;
75535;SDS011;64119;52.070;20.804;2023-09-30T05:35:22;9.50;;;4.50;;
75535;SDS011;64119;52.070;20.804;2023-09-30T05:37:51;7.80;;;4.70;;
75535;SDS011;64119;52.070;20.804;2023-09-30T05:40:22;7.70;;;5.10;;
75535;SDS011;64119;52.070;20.804;2023-09-30T05:42:53;8.10;;;4.70;;
75535;SDS011;64119;52.070;20.804;2023-09-30T05:47:51;6.40;;;4.90;;
75535;SDS011;64119;52.070;20.804;2023-09-30T05:50:23;7.50;;;4.70;;
75535;SDS011;64119;52.070;20.804;2023-09-30T05:52:53;8.40;;;5.00;;
75535;SDS011;64119;52.070;20.804;2023-09-30T05:55:23;8.50;;;5.20;;
75535;SDS011;64119;52.070;20.804;2023-09-30T05:57:54;6.30;;;4.70;;
75535;SDS011;64119;52.070;20.804;2023-09-30T06:00:23;7.20;;;5.20;;
75535;SDS011;64119;52.070;20.804;2023-09-30T06:02:59;8.90;;;5.40;;
75535;SDS011;64119;52.070;20.804;2023-09-30T06:05:28;8.40;;;5.10;;
75535;SDS011;64119;52.070;20.804;2023-09-30T06:08:00;7.80;;;5.40;;
75535;SDS011;64119;52.070;20.804;2023-09-30T06:10:32;7.80;;;4.80;;
75535;SDS011;64119;52.070;20.804;2023-09-30T06:13:00;8.30;;;6.40;;
75535;SDS011;64119;52.070;20.804;2023-09-30T06:15:29;7.30;;;6.10;;
75535;SDS011;64119;52.070;20.804;2023-09-30T06:17:59;9.00;;;5.80;;
75535;SDS011;64119;52.070;20.804;2023-09-30T06:20:28;8.90;;;5.60;;
75535;SDS011;64119;52.070;20.804;2023-09-30T06:22:58;9.40;;;5.70;;
75535;SDS011;64119;52.070;20.804;2023-09-30T06:25:28;8.60;;;6.10;;
75535;SDS011;64119;52.070;20.804;2023-09-30T06:27:58;10.60;;;6.30;;
75535;SDS011;64119;52.070;20.804;2023-09-30T06:30:26;8.50;;;6.30;;
75535;SDS011;64119;52.070;20.804;2023-09-30T06:32:58;8.60;;;6.60;;
75535;SDS011;64119;52.070;20.804;2023-09-30T06:35:28;9.50;;;6.60;;
75535;SDS011;64119;52.070;20.804;2023-09-30T06:38:05;9.00;;;6.70;;
75535;SDS011;64119;52.070;20.804;2023-09-30T06:40:34;11.20;;;7.60;;
75535;SDS011;64119;52.070;20.804;2023-09-30T06:43:07;12.40;;;6.90;;
75535;SDS011;64119;52.070;20.804;2023-09-30T06:45:36;9.50;;;6.80;;
75535;SDS011;64119;52.070;20.804;2023-09-30T06:48:09;9.70;;;7.80;;
75535;SDS011;64119;52.070;20.804;2023-09-30T06:53:16;9.20;;;6.50;;
75535;SDS011;64119;52.070;20.804;2023-09-30T06:55:46;11.20;;;7.50;;
75535;SDS011;64119;52.070;20.804;2023-09-30T06:58:14;8.20;;;6.40;;
75535;SDS011;64119;52.070;20.804;2023-09-30T07:00:47;11.10;;;8.80;;
75535;SDS011;64119;52.070;20.804;2023-09-30T07:03:17;10.30;;;7.10;;
75535;SDS011;64119;52.070;20.804;2023-09-30T07:05:50;15.10;;;9.30;;
75535;SDS011;64119;52.070;20.804;2023-09-30T07:08:19;9.90;;;8.30;;
75535;SDS011;64119;52.070;20.804;2023-09-30T07:10:50;11.10;;;8.50;;
75535;SDS011;64119;52.070;20.804;2023-09-30T07:13:21;12.10;;;8.00;;
75535;SDS011;64119;52.070;20.804;2023-09-30T07:15:48;14.20;;;8.70;;
75535;SDS011;64119;52.070;20.804;2023-09-30T07:18:17;13.70;;;9.00;;
75535;SDS011;64119;52.070;20.804;2023-09-30T07:20:45;14.00;;;8.40;;
75535;SDS011;64119;52.070;20.804;2023-09-30T07:23:13;11.80;;;8.60;;
75535;SDS011;64119;52.070;20.804;2023-09-30T07:25:47;11.70;;;8.40;;
75535;SDS011;64119;52.070;20.804;2023-09-30T07:28:15;13.50;;;8.30;;
75535;SDS011;64119;52.070;20.804;2023-09-30T07:30:43;13.40;;;9.00;;
75535;SDS011;64119;52.070;20.804;2023-09-30T07:33:12;12.30;;;8.60;;
75535;SDS011;64119;52.070;20.804;2023-09-30T07:35:40;12.50;;;8.60;;
75535;SDS011;64119;52.070;20.804;2023-09-30T07:38:09;12.80;;;8.00;;
75535;SDS011;64119;52.070;20.804;2023-09-30T07:40:37;12.30;;;8.60;;
75535;SDS011;64119;52.070;20.804;2023-09-30T07:43:05;12.90;;;8.30;;
75535;SDS011;64119;52.070;20.804;2023-09-30T07:45:33;10.20;;;8.30;;
75535;SDS011;64119;52.070;20.804;2023-09-30T07:48:01;15.80;;;8.50;;
75535;SDS011;64119;52.070;20.804;2023-09-30T07:50:32;10.50;;;8.30;;
75535;SDS011;64119;52.070;20.804;2023-09-30T07:53:01;11.60;;;7.40;;
75535;SDS011;64119;52.070;20.804;2023-09-30T07:55:29;12.80;;;8.30;;
75535;SDS011;64119;52.070;20.804;2023-09-30T07:57:57;11.30;;;8.00;;
75535;SDS011;64119;52.070;20.804;2023-09-30T08:00:27;13.30;;;8.10;;
75535;SDS011;64119;52.070;20.804;2023-09-30T08:02:55;12.50;;;6.30;;
75535;SDS011;64119;52.070;20.804;2023-09-30T08:05:23;11.10;;;8.10;;
75535;SDS011;64119;52.070;20.804;2023-09-30T08:07:51;9.40;;;7.60;;
75535;SDS011;64119;52.070;20.804;2023-09-30T08:10:19;11.40;;;8.20;;
75535;SDS011;64119;52.070;20.804;2023-09-30T08:12:47;11.20;;;8.40;;
75535;SDS011;64119;52.070;20.804;2023-09-30T08:15:17;11.20;;;8.30;;
75535;SDS011;64119;52.070;20.804;2023-09-30T08:17:45;10.60;;;8.00;;
75535;SDS011;64119;52.070;20.804;2023-09-30T08:20:13;10.30;;;7.50;;
75535;SDS011;64119;52.070;20.804;2023-09-30T08:22:41;13.50;;;7.60;;
75535;SDS011;64119;52.070;20.804;2023-09-30T08:25:09;11.20;;;7.50;;
75535;SDS011;64119;52.070;20.804;2023-09-30T08:27:38;13.80;;;8.70;;
75535;SDS011;64119;52.070;20.804;2023-09-30T08:30:07;13.80;;;8.80;;
75535;SDS011;64119;52.070;20.804;2023-09-30T08:32:35;12.80;;;9.60;;
75535;SDS011;64119;52.070;20.804;2023-09-30T08:35:04;11.50;;;8.50;;
75535;SDS011;64119;52.070;20.804;2023-09-30T08:37:33;11.00;;;9.30;;
75535;SDS011;64119;52.070;20.804;2023-09-30T08:40:01;12.80;;;9.90;;
75535;SDS011;64119;52.070;20.804;2023-09-30T08:42:31;13.50;;;9.80;;
75535;SDS011;64119;52.070;20.804;2023-09-30T08:45:03;15.20;;;8.90;;
75535;SDS011;64119;52.070;20.804;2023-09-30T08:47:34;11.50;;;9.00;;
75535;SDS011;64119;52.070;20.804;2023-09-30T08:50:05;14.40;;;9.90;;
75535;SDS011;64119;52.070;20.804;2023-09-30T08:52:39;12.10;;;9.40;;
75535;SDS011;64119;52.070;20.804;2023-09-30T08:55:09;13.90;;;10.60;;
75535;SDS011;64119;52.070;20.804;2023-09-30T08:57:38;14.90;;;9.70;;
75535;SDS011;64119;52.070;20.804;2023-09-30T09:00:09;17.90;;;10.20;;
75535;SDS011;64119;52.070;20.804;2023-09-30T09:02:39;13.90;;;9.40;;
75535;SDS011;64119;52.070;20.804;2023-09-30T09:05:08;14.30;;;9.70;;
75535;SDS011;64119;52.070;20.804;2023-09-30T09:07:37;14.00;;;9.70;;
75535;SDS011;64119;52.070;20.804;2023-09-30T09:12:38;13.10;;;10.00;;
75535;SDS011;64119;52.070;20.804;2023-09-30T09:15:08;15.60;;;10.90;;
75535;SDS011;64119;52.070;20.804;2023-09-30T09:17:51;14.70;;;9.50;;
75535;SDS011;64119;52.070;20.804;2023-09-30T09:20:24;16.00;;;10.80;;
75535;SDS011;64119;52.070;20.804;2023-09-30T09:22:53;14.70;;;11.10;;
75535;SDS011;64119;52.070;20.804;2023-09-30T09:25:23;14.70;;;10.70;;
75535;SDS011;64119;52.070;20.804;2023-09-30T09:27:52;16.00;;;11.80;;
75535;SDS011;64119;52.070;20.804;2023-09-30T09:30:25;15.10;;;10.30;;
75535;SDS011;64119;52.070;20.804;2023-09-30T09:35:26;12.70;;;9.80;;
75535;SDS011;64119;52.070;20.804;2023-09-30T09:38:05;16.50;;;11.20;;
75535;SDS011;64119;52.070;20.804;2023-09-30T09:40:37;17.10;;;11.50;;
75535;SDS011;64119;52.070;20.804;2023-09-30T09:43:07;17.40;;;10.80;;
75535;SDS011;64119;52.070;20.804;2023-09-30T09:45:37;16.90;;;11.80;;
75535;SDS011;64119;52.070;20.804;2023-09-30T09:48:06;16.60;;;11.30;;
75535;SDS011;64119;52.070;20.804;2023-09-30T09:50:35;16.60;;;12.00;;
75535;SDS011;64119;52.070;20.804;2023-09-30T09:53:03;22.20;;;11.80;;
75535;SDS011;64119;52.070;20.804;2023-09-30T09:55:32;18.20;;;12.00;;
75535;SDS011;64119;52.070;20.804;2023-09-30T09:58:01;15.10;;;10.90;;
75535;SDS011;64119;52.070;20.804;2023-09-30T10:00:31;16.50;;;12.50;;
75535;SDS011;64119;52.070;20.804;2023-09-30T10:03:01;18.30;;;12.20;;
75535;SDS011;64119;52.070;20.804;2023-09-30T10:05:30;18.30;;;12.10;;
75535;SDS011;64119;52.070;20.804;2023-09-30T10:08:10;19.00;;;11.40;;
75535;SDS011;64119;52.070;20.804;2023-09-30T10:10:42;15.40;;;9.90;;
75535;SDS011;64119;52.070;20.804;2023-09-30T10:16:50;12.70;;;7.20;;
75535;SDS011;64119;52.070;20.804;2023-09-30T10:19:14;10.90;;;5.90;;
75535;SDS011;64119;52.070;20.804;2023-09-30T10:24:49;8.00;;;5.60;;
75535;SDS011;64119;52.070;20.804;2023-09-30T10:27:28;9.40;;;5.20;;
75535;SDS011;64119;52.070;20.804;2023-09-30T10:35:21;7.90;;;4.50;;
75535;SDS011;64119;52.070;20.804;2023-09-30T10:40:50;6.70;;;3.50;;
75535;SDS011;64119;52.070;20.804;2023-09-30T10:43:34;4.80;;;2.70;;
75535;SDS011;64119;52.070;20.804;2023-09-30T10:46:04;5.20;;;2.20;;
75535;SDS011;64119;52.070;20.804;2023-09-30T10:48:51;3.30;;;1.60;;
75535;SDS011;64119;52.070;20.804;2023-09-30T10:51:20;3.10;;;1.30;;
75535;SDS011;64119;52.070;20.804;2023-09-30T10:53:49;2.30;;;1.40;;
75535;SDS011;64119;52.070;20.804;2023-09-30T10:56:26;2.40;;;1.30;;
75535;SDS011;64119;52.070;20.804;2023-09-30T10:59:00;1.80;;;1.00;;
75535;SDS011;64119;52.070;20.804;2023-09-30T11:01:33;2.70;;;1.00;;
75535;SDS011;64119;52.070;20.804;2023-09-30T11:04:02;2.70;;;1.40;;
75535;SDS011;64119;52.070;20.804;2023-09-30T11:06:34;2.50;;;1.20;;
75535;SDS011;64119;52.070;20.804;2023-09-30T11:09:02;4.10;;;1.60;;
75535;SDS011;64119;52.070;20.804;2023-09-30T11:11:41;2.90;;;1.40;;
75535;SDS011;64119;52.070;20.804;2023-09-30T11:14:24;3.60;;;1.60;;
75535;SDS011;64119;52.070;20.804;2023-09-30T11:16:58;3.70;;;1.80;;
75535;SDS011;64119;52.070;20.804;2023-09-30T11:19:35;5.80;;;2.00;;
75535;SDS011;64119;52.070;20.804;2023-09-30T11:22:07;3.10;;;1.90;;
75535;SDS011;64119;52.070;20.804;2023-09-30T11:24:35;4.30;;;2.10;;
75535;SDS011;64119;52.070;20.804;2023-09-30T11:27:04;6.20;;;2.40;;
75535;SDS011;64119;52.070;20.804;2023-09-30T11:29:32;5.40;;;2.30;;
75535;SDS011;64119;52.070;20.804;2023-09-30T11:32:00;5.10;;;2.40;;
75535;SDS011;64119;52.070;20.804;2023-09-30T11:34:36;6.90;;;2.30;;
75535;SDS011;64119;52.070;20.804;2023-09-30T11:37:05;3.60;;;1.80;;
75535;SDS011;64119;52.070;20.804;2023-09-30T11:39:33;3.90;;;2.00;;
75535;SDS011;64119;52.070;20.804;2023-09-30T11:42:01;5.70;;;1.80;;
75535;SDS011;64119;52.070;20.804;2023-09-30T11:44:30;4.50;;;2.00;;
75535;SDS011;64119;52.070;20.804;2023-09-30T11:46:59;4.90;;;1.60;;
75535;SDS011;64119;52.070;20.804;2023-09-30T11:49:35;6.00;;;1.90;;
75535;SDS011;64119;52.070;20.804;2023-09-30T11:52:07;4.50;;;1.70;;
75535;SDS011;64119;52.070;20.804;2023-09-30T11:54:41;4.50;;;2.00;;
75535;SDS011;64119;52.070;20.804;2023-09-30T11:57:12;6.10;;;2.20;;
75535;SDS011;64119;52.070;20.804;2023-09-30T11:59:47;4.90;;;2.00;;
75535;SDS011;64119;52.070;20.804;2023-09-30T12:02:15;5.70;;;2.20;;
75535;SDS011;64119;52.070;20.804;2023-09-30T12:04:47;8.70;;;2.30;;
75535;SDS011;64119;52.070;20.804;2023-09-30T12:07:15;5.50;;;2.40;;
75535;SDS011;64119;52.070;20.804;2023-09-30T12:09:43;5.50;;;2.20;;
75535;SDS011;64119;52.070;20.804;2023-09-30T12:12:11;7.70;;;2.70;;
75535;SDS011;64119;52.070;20.804;2023-09-30T12:14:42;6.00;;;2.40;;
75535;SDS011;64119;52.070;20.804;2023-09-30T12:17:10;8.00;;;2.80;;
75535;SDS011;64119;52.070;20.804;2023-09-30T12:19:40;7.60;;;3.10;;
75535;SDS011;64119;52.070;20.804;2023-09-30T12:22:10;5.60;;;2.90;;
75535;SDS011;64119;52.070;20.804;2023-09-30T12:24:38;6.70;;;3.00;;
75535;SDS011;64119;52.070;20.804;2023-09-30T12:32:06;5.90;;;2.50;;
75535;SDS011;64119;52.070;20.804;2023-09-30T12:34:34;5.70;;;3.00;;
75535;SDS011;64119;52.070;20.804;2023-09-30T12:37:03;5.40;;;2.60;;
75535;SDS011;64119;52.070;20.804;2023-09-30T12:39:31;5.80;;;3.00;;
75535;SDS011;64119;52.070;20.804;2023-09-30T12:42:01;7.90;;;2.90;;
75535;SDS011;64119;52.070;20.804;2023-09-30T12:44:29;5.70;;;2.50;;
75535;SDS011;64119;52.070;20.804;2023-09-30T12:46:56;5.90;;;2.60;;
75535;SDS011;64119;52.070;20.804;2023-09-30T12:49:24;6.30;;;2.40;;
75535;SDS011;64119;52.070;20.804;2023-09-30T12:51:52;6.60;;;2.50;;
75535;SDS011;64119;52.070;20.804;2023-09-30T12:54:20;7.50;;;3.20;;
75535;SDS011;64119;52.070;20.804;2023-09-30T12:56:48;8.10;;;3.00;;
75535;SDS011;64119;52.070;20.804;2023-09-30T12:59:18;5.90;;;2.40;;
75535;SDS011;64119;52.070;20.804;2023-09-30T13:01:47;5.20;;;1.90;;
75535;SDS011;64119;52.070;20.804;2023-09-30T13:04:16;7.20;;;2.90;;
75535;SDS011;64119;52.070;20.804;2023-09-30T13:06:44;6.30;;;2.50;;
75535;SDS011;64119;52.070;20.804;2023-09-30T13:09:12;5.50;;;2.30;;
75535;SDS011;64119;52.070;20.804;2023-09-30T13:11:40;4.50;;;2.30;;
75535;SDS011;64119;52.070;20.804;2023-09-30T13:14:09;4.00;;;2.00;;
75535;SDS011;64119;52.070;20.804;2023-09-30T13:16:37;4.90;;;2.50;;
75535;SDS011;64119;52.070;20.804;2023-09-30T13:19:05;5.30;;;2.40;;
75535;SDS011;64119;52.070;20.804;2023-09-30T13:21:33;8.00;;;2.60;;
75535;SDS011;64119;52.070;20.804;2023-09-30T13:24:01;6.60;;;2.70;;
75535;SDS011;64119;52.070;20.804;2023-09-30T13:26:29;5.40;;;2.40;;
75535;SDS011;64119;52.070;20.804;2023-09-30T13:28:58;5.50;;;2.30;;
75535;SDS011;64119;52.070;20.804;2023-09-30T13:31:26;5.40;;;2.30;;
75535;SDS011;64119;52.070;20.804;2023-09-30T13:33:54;4.90;;;2.10;;
75535;SDS011;64119;52.070;20.804;2023-09-30T13:36:22;4.70;;;1.90;;
75535;SDS011;64119;52.070;20.804;2023-09-30T13:38:49;6.20;;;1.90;;
75535;SDS011;64119;52.070;20.804;2023-09-30T13:41:17;3.40;;;1.40;;
75535;SDS011;64119;52.070;20.804;2023-09-30T13:43:45;3.80;;;1.30;;
75535;SDS011;64119;52.070;20.804;2023-09-30T13:46:13;5.70;;;2.90;;
75535;SDS011;64119;52.070;20.804;2023-09-30T13:48:41;7.60;;;1.80;;
75535;SDS011;64119;52.070;20.804;2023-09-30T13:51:09;3.90;;;1.40;;
75535;SDS011;64119;52.070;20.804;2023-09-30T13:53:38;4.80;;;2.00;;
75535;SDS011;64119;52.070;20.804;2023-09-30T13:56:06;5.00;;;1.50;;
75535;SDS011;64119;52.070;20.804;2023-09-30T13:58:34;6.10;;;2.00;;
75535;SDS011;64119;52.070;20.804;2023-09-30T14:01:02;4.00;;;1.50;;
75535;SDS011;64119;52.070;20.804;2023-09-30T14:03:31;5.80;;;1.60;;
75535;SDS011;64119;52.070;20.804;2023-09-30T14:05:59;5.00;;;1.80;;
75535;SDS011;64119;52.070;20.804;2023-09-30T14:08:26;4.00;;;1.60;;
75535;SDS011;64119;52.070;20.804;2023-09-30T14:10:54;3.90;;;1.90;;
75535;SDS011;64119;52.070;20.804;2023-09-30T14:13:23;6.20;;;1.80;;
75535;SDS011;64119;52.070;20.804;2023-09-30T14:15:51;4.70;;;1.80;;
75535;SDS011;64119;52.070;20.804;2023-09-30T14:18:20;5.40;;;1.90;;
75535;SDS011;64119;52.070;20.804;2023-09-30T14:20:48;3.60;;;1.40;;
75535;SDS011;64119;52.070;20.804;2023-09-30T14:23:17;7.90;;;2.60;;
75535;SDS011;64119;52.070;20.804;2023-09-30T14:25:45;5.10;;;1.80;;
75535;SDS011;64119;52.070;20.804;2023-09-30T14:28:13;4.30;;;1.60;;
75535;SDS011;64119;52.070;20.804;2023-09-30T14:30:41;7.30;;;1.90;;
75535;SDS011;64119;52.070;20.804;2023-09-30T14:33:09;4.10;;;1.80;;
75535;SDS011;64119;52.070;20.804;2023-09-30T14:35:38;7.00;;;1.80;;
75535;SDS011;64119;52.070;20.804;2023-09-30T14:38:06;7.00;;;1.90;;
75535;SDS011;64119;52.070;20.804;2023-09-30T14:40:37;5.60;;;2.00;;
75535;SDS011;64119;52.070;20.804;2023-09-30T14:43:07;5.40;;;1.60;;
75535;SDS011;64119;52.070;20.804;2023-09-30T14:45:39;4.80;;;2.00;;
75535;SDS011;64119;52.070;20.804;2023-09-30T14:48:08;6.10;;;1.80;;
75535;SDS011;64119;52.070;20.804;2023-09-30T14:55:32;6.50;;;2.10;;
75535;SDS011;64119;52.070;20.804;2023-09-30T14:58:00;8.60;;;1.90;;
75535;SDS011;64119;52.070;20.804;2023-09-30T15:00:28;4.10;;;1.70;;
75535;SDS011;64119;52.070;20.804;2023-09-30T15:02:56;5.30;;;1.90;;
75535;SDS011;64119;52.070;20.804;2023-09-30T15:05:24;4.70;;;1.80;;
75535;SDS011;64119;52.070;20.804;2023-09-30T15:07:52;4.50;;;1.60;;
75535;SDS011;64119;52.070;20.804;2023-09-30T15:10:20;4.50;;;1.60;;
75535;SDS011;64119;52.070;20.804;2023-09-30T15:12:48;5.80;;;1.60;;
75535;SDS011;64119;52.070;20.804;2023-09-30T15:15:16;6.30;;;1.80;;
75535;SDS011;64119;52.070;20.804;2023-09-30T15:17:44;6.90;;;1.90;;
75535;SDS011;64119;52.070;20.804;2023-09-30T15:20:12;7.30;;;1.90;;
75535;SDS011;64119;52.070;20.804;2023-09-30T15:22:40;5.90;;;2.20;;
75535;SDS011;64119;52.070;20.804;2023-09-30T15:25:08;6.40;;;2.00;;